Kezdőlap
METAR-TAF:

METAR-TAF

Repülőterek :

Rodosz-Diagórasz nemzetközi repülőtér

Rodosz, Görögország

földrajzi szélesség: 36-24N, földrajzi hosszúság: 028-05E, magasság: 4 m

Jelenlegi meteorológiai megfigyelések

A jelentés 15 perccel ezelõtt készült, 02:50 UTC
Különbözõ irányokból fújó szél 2 kt
Hőmérséklet 11°C
Páratartalom 76%
Légköri nyomás 1017 hPa
Látótávolság 10 km, vagy több
Kevés felhő 2000 lábon

METAR: LGRP 240250Z VRB02KT 9999 FEW020 11/07 Q1017 NOSIG

Idő: 05:05 (03:05 UTC)

Előrejelzés

A jelentés 4 órával és 5 perccel ezelõtt készült, 23:00 UTC
Az előrejelzés 24-én 00 óra UTC és 24-én 24 óra UTC között érvényes
Nyugat-délnyugati szél 8 kt
Látótávolság 10 km, vagy több
Kevés felhő 1800 lábon
Szórványos felhőzet 2500 lábon

TAF: LGRP 232300Z 2400/2424 24008KT 9999 FEW018 SCT025

Meteorológiai megfigyelések és előrejelzések több, mint 4000 repülőtéren (METAR és TAF jelentéseket).

A térképen piros és sárga pontok jelzik az elérhető meteorológiai állomásokat.

Mozgassa az egeret a pont fölött, hogy megjelenjen az állomás neve.

Azután kattintson az időjárási megfigyelések és előrejelzések megtekintéséhez.

A térkép megváltoztatása: kattintson a fekete keresztel jelölt zöld gombra ráközelítéshez, a vonallal jelölt zöld gombra távolításhoz, vagy a zöld nyilakra a szomszédos térképek eléréséhez.


METAR-TAF: